createdAt,value
2018-01-16T00:00:29.573Z,-3.11
2018-01-16T00:02:57.170Z,-3.06
2018-01-16T00:05:24.819Z,-3.11
2018-01-16T00:07:52.378Z,-3.12
2018-01-16T00:10:19.979Z,-3.21
2018-01-16T00:12:47.571Z,-3.26
2018-01-16T00:15:15.120Z,-3.35
2018-01-16T00:17:42.713Z,-3.38
2018-01-16T00:20:10.319Z,-3.41
2018-01-16T00:22:41.922Z,-3.38
2018-01-16T00:25:09.470Z,-3.48
2018-01-16T00:27:37.015Z,-3.51
2018-01-16T00:30:04.627Z,-3.34
2018-01-16T00:32:32.178Z,-3.23
2018-01-16T00:34:59.774Z,-3.17
2018-01-16T00:37:27.342Z,-3.10
2018-01-16T00:39:54.885Z,-3.06
2018-01-16T00:42:22.474Z,-3.03
2018-01-16T00:44:50.018Z,-3.07
2018-01-16T00:47:17.562Z,-3.05
2018-01-16T00:49:45.182Z,-3.12
2018-01-16T00:52:12.787Z,-3.05
2018-01-16T00:54:40.370Z,-3.02
2018-01-16T00:57:07.914Z,-3.05
2018-01-16T00:59:35.458Z,-3.08
2018-01-16T01:02:14.972Z,-3.07
2018-01-16T01:04:42.524Z,-2.98
2018-01-16T01:07:10.180Z,-3.01
2018-01-16T01:09:37.867Z,-3.19
2018-01-16T01:12:05.470Z,-3.17
2018-01-16T01:14:33.022Z,-3.14
2018-01-16T01:17:00.623Z,-3.03
2018-01-16T01:19:28.234Z,-3.05
2018-01-16T01:21:55.834Z,-3.06
2018-01-16T01:24:23.374Z,-3.07
2018-01-16T01:26:50.998Z,-3.05
2018-01-16T01:29:18.587Z,-3.05
2018-01-16T01:31:46.202Z,-2.96
2018-01-16T01:34:13.746Z,-3.00
2018-01-16T01:36:41.347Z,-2.89
2018-01-16T01:39:08.955Z,-2.84
2018-01-16T01:41:36.542Z,-2.91
2018-01-16T01:44:04.125Z,-2.89
2018-01-16T01:46:31.674Z,-2.91
2018-01-16T01:49:16.208Z,-2.92
2018-01-16T01:51:43.751Z,-3.00
2018-01-16T01:54:11.355Z,-2.88
2018-01-16T01:56:38.887Z,-2.95
2018-01-16T01:59:06.430Z,-2.87
2018-01-16T02:01:34.094Z,-2.95
2018-01-16T02:04:01.698Z,-2.98
2018-01-16T02:06:29.244Z,-3.02
2018-01-16T02:08:56.859Z,-3.07
2018-01-16T02:11:24.402Z,-3.00
2018-01-16T02:13:52.060Z,-2.97
2018-01-16T02:16:19.601Z,-2.90
2018-01-16T02:18:47.206Z,-2.89
2018-01-16T02:21:14.820Z,-2.93
2018-01-16T02:23:42.418Z,-2.98
2018-01-16T02:26:10.013Z,-3.16
2018-01-16T02:28:37.615Z,-3.29
2018-01-16T02:31:05.158Z,-3.32
2018-01-16T02:33:32.711Z,-3.27
2018-01-16T02:36:00.258Z,-3.37
2018-01-16T02:38:27.847Z,-3.49
2018-01-16T02:40:55.394Z,-3.35
2018-01-16T02:43:22.995Z,-3.39
2018-01-16T02:45:50.586Z,-3.45
2018-01-16T02:48:18.166Z,-3.42
2018-01-16T02:50:45.785Z,-3.42
2018-01-16T02:53:13.372Z,-3.39
2018-01-16T02:55:40.962Z,-3.42
2018-01-16T02:58:08.513Z,-3.45
2018-01-16T03:00:36.062Z,-3.30
2018-01-16T03:03:03.707Z,-3.22
2018-01-16T03:05:31.253Z,-3.13
2018-01-16T03:07:58.850Z,-3.17
2018-01-16T03:10:26.399Z,-3.20
2018-01-16T03:12:53.944Z,-3.11
2018-01-16T03:15:21.526Z,-3.25
2018-01-16T03:17:49.061Z,-3.24
2018-01-16T03:20:16.653Z,-3.21
2018-01-16T03:22:44.263Z,-3.23
2018-01-16T03:25:12.574Z,-3.18
2018-01-16T03:27:40.186Z,-3.20
2018-01-16T03:30:07.761Z,-3.25
2018-01-16T03:32:35.296Z,-3.30
2018-01-16T03:35:02.845Z,-3.31
2018-01-16T03:37:30.386Z,-3.24
2018-01-16T03:39:57.974Z,-3.25
2018-01-16T03:42:25.576Z,-3.24
2018-01-16T03:44:53.113Z,-3.21
2018-01-16T03:47:20.669Z,-3.06
2018-01-16T03:49:48.266Z,-3.08
2018-01-16T03:52:15.850Z,-3.03
2018-01-16T03:54:43.393Z,-2.88
2018-01-16T03:57:10.965Z,-2.78
2018-01-16T03:59:38.513Z,-2.75
2018-01-16T04:02:06.045Z,-2.80
2018-01-16T04:04:33.690Z,-2.77
2018-01-16T04:07:01.287Z,-2.87
2018-01-16T04:09:28.825Z,-2.79
2018-01-16T04:11:56.374Z,-2.87
2018-01-16T04:14:23.917Z,-2.79
2018-01-16T04:16:51.505Z,-2.85
2018-01-16T04:19:19.072Z,-2.85
2018-01-16T04:21:46.610Z,-2.83
2018-01-16T04:24:14.158Z,-2.77
2018-01-16T04:26:41.702Z,-2.72
2018-01-16T04:29:09.289Z,-2.69
2018-01-16T04:31:36.829Z,-2.71
2018-01-16T04:34:04.464Z,-2.70
2018-01-16T04:36:32.075Z,-2.68
2018-01-16T04:38:59.622Z,-2.70
2018-01-16T04:41:27.202Z,-2.66
2018-01-16T04:43:54.806Z,-2.74
2018-01-16T04:46:22.347Z,-2.75
2018-01-16T04:48:49.959Z,-2.64
2018-01-16T04:51:17.558Z,-2.54
2018-01-16T04:53:45.138Z,-2.60
2018-01-16T04:56:12.677Z,-2.61
2018-01-16T04:58:40.318Z,-2.60
2018-01-16T05:01:07.869Z,-2.53
2018-01-16T05:03:35.471Z,-2.76
2018-01-16T05:06:03.053Z,-2.73
2018-01-16T05:08:30.662Z,-2.63
2018-01-16T05:10:58.260Z,-2.54
2018-01-16T05:13:25.809Z,-2.62
2018-01-16T05:15:53.360Z,-2.57
2018-01-16T05:18:20.938Z,-2.51
2018-01-16T05:20:48.534Z,-2.53
2018-01-16T05:23:16.138Z,-2.52
2018-01-16T05:25:43.746Z,-2.43
2018-01-16T05:28:11.286Z,-2.39
2018-01-16T05:30:38.927Z,-2.37
2018-01-16T05:33:06.526Z,-2.33
2018-01-16T05:35:34.067Z,-2.38
2018-01-16T05:38:01.613Z,-2.44
2018-01-16T05:40:29.211Z,-2.55
2018-01-16T05:42:56.854Z,-2.54
2018-01-16T05:45:24.463Z,-2.53
2018-01-16T05:47:52.002Z,-2.53
2018-01-16T05:50:19.650Z,-2.54
2018-01-16T05:52:47.213Z,-2.49
2018-01-16T05:55:14.793Z,-2.44
2018-01-16T05:57:42.391Z,-2.52
2018-01-16T06:00:09.939Z,-2.53
2018-01-16T06:02:37.482Z,-2.60
2018-01-16T06:05:05.074Z,-2.68
2018-01-16T06:07:32.718Z,-2.68
2018-01-16T06:10:00.323Z,-2.62
2018-01-16T06:12:27.866Z,-2.68
2018-01-16T06:14:55.421Z,-2.73
2018-01-16T06:17:22.962Z,-2.71
2018-01-16T06:19:50.606Z,-2.83
2018-01-16T06:22:18.146Z,-2.81
2018-01-16T06:24:45.750Z,-2.66
2018-01-16T06:27:13.401Z,-2.47
2018-01-16T06:29:40.946Z,-2.29
2018-01-16T06:32:08.529Z,-2.24
2018-01-16T06:34:36.070Z,-2.22
2018-01-16T06:37:03.671Z,-2.18
2018-01-16T06:39:31.273Z,-2.08
2018-01-16T06:41:58.813Z,-2.06
2018-01-16T06:44:26.431Z,-2.07
2018-01-16T06:46:54.035Z,-1.87
2018-01-16T06:49:21.578Z,-1.74
2018-01-16T06:51:49.129Z,-1.72
2018-01-16T06:54:16.746Z,-1.74
2018-01-16T06:56:44.335Z,-1.73
2018-01-16T06:59:11.877Z,-1.64
2018-01-16T07:01:39.477Z,-1.61
2018-01-16T07:04:07.189Z,-1.67
2018-01-16T07:06:34.730Z,-1.48
2018-01-16T07:09:02.375Z,-1.37
2018-01-16T07:11:29.983Z,-1.33
2018-01-16T07:13:57.583Z,-1.41
2018-01-16T07:16:25.134Z,-1.37
2018-01-16T07:18:52.675Z,-1.21
2018-01-16T07:21:20.261Z,-1.09
2018-01-16T07:23:47.802Z,-1.11
2018-01-16T07:26:15.342Z,-1.11
2018-01-16T07:28:42.890Z,-0.94
2018-01-16T07:31:10.429Z,-0.80
2018-01-16T07:33:38.070Z,-0.89
2018-01-16T07:36:05.706Z,-0.86
2018-01-16T07:38:33.307Z,-0.92
2018-01-16T07:41:00.923Z,-0.85
2018-01-16T07:43:28.470Z,-0.65
2018-01-16T07:45:56.085Z,-0.67
2018-01-16T07:48:23.625Z,-0.88
2018-01-16T07:53:18.785Z,-0.96
2018-01-16T07:55:46.382Z,-1.10
2018-01-16T07:58:14.050Z,-1.39
2018-01-16T08:00:41.654Z,-1.39
2018-01-16T08:03:09.202Z,-1.31
2018-01-16T08:05:36.814Z,-1.28
2018-01-16T08:08:04.411Z,-1.27
2018-01-16T08:10:32.054Z,-1.12
2018-01-16T08:12:59.656Z,-1.06
2018-01-16T08:15:27.241Z,-1.08
2018-01-16T08:17:54.820Z,-1.12
2018-01-16T08:20:22.357Z,-1.47
2018-01-16T08:22:49.998Z,-1.47
2018-01-16T08:25:17.541Z,-1.46
2018-01-16T08:27:45.075Z,-1.48
2018-01-16T08:30:12.650Z,-1.35
2018-01-16T08:32:40.206Z,-1.30
2018-01-16T08:35:07.797Z,-1.23
2018-01-16T08:37:35.338Z,-0.88
2018-01-16T08:40:02.878Z,-0.49
2018-01-16T08:42:30.426Z,-0.23
2018-01-16T08:44:57.969Z,-0.37
2018-01-16T08:47:25.556Z,-0.45
2018-01-16T08:49:53.095Z,-0.66
2018-01-16T08:52:21.723Z,-0.63
2018-01-16T08:54:49.337Z,-0.59
2018-01-16T08:57:16.879Z,-0.44
2018-01-16T08:59:44.493Z,-0.28
2018-01-16T09:02:12.062Z,-0.02
2018-01-16T09:04:39.657Z,0.21
2018-01-16T09:07:07.202Z,0.39
2018-01-16T09:09:34.794Z,0.51
2018-01-16T09:12:02.378Z,0.74
2018-01-16T09:14:29.919Z,0.94
2018-01-16T09:16:57.453Z,1.15
2018-01-16T09:19:24.994Z,1.11
2018-01-16T09:21:52.534Z,1.10
2018-01-16T09:24:20.222Z,1.44
2018-01-16T09:26:47.770Z,1.61
2018-01-16T09:29:15.303Z,1.58
2018-01-16T09:31:42.876Z,1.69
2018-01-16T09:34:10.474Z,1.84
2018-01-16T09:36:38.053Z,2.13
2018-01-16T09:39:05.625Z,2.46
2018-01-16T09:41:33.162Z,2.56
2018-01-16T09:44:00.701Z,2.80
2018-01-16T09:46:28.239Z,2.89
2018-01-16T09:48:55.874Z,3.12
2018-01-16T09:51:23.469Z,2.86
2018-01-16T09:53:51.102Z,3.11
2018-01-16T09:56:18.649Z,3.02
2018-01-16T09:58:46.190Z,3.26
2018-01-16T10:01:13.770Z,2.94
2018-01-16T10:03:41.362Z,3.29
2018-01-16T10:06:08.906Z,3.53
2018-01-16T10:08:36.515Z,3.48
2018-01-16T10:11:04.099Z,3.40
2018-01-16T10:13:31.768Z,3.42
2018-01-16T10:15:59.370Z,3.70
2018-01-16T10:18:26.910Z,4.61
2018-01-16T10:20:54.454Z,4.63
2018-01-16T10:23:21.986Z,4.27
2018-01-16T10:25:49.569Z,4.09
2018-01-16T10:28:17.114Z,3.55
2018-01-16T10:30:44.710Z,3.36
2018-01-16T10:33:12.256Z,3.60
2018-01-16T10:35:39.905Z,3.57
2018-01-16T10:38:07.546Z,4.05
2018-01-16T10:40:35.138Z,3.62
2018-01-16T10:43:02.734Z,3.81
2018-01-16T10:45:30.287Z,3.61
2018-01-16T10:47:58.019Z,4.23
2018-01-16T10:50:25.602Z,3.99
2018-01-16T10:52:53.134Z,3.90
2018-01-16T10:55:20.677Z,3.17
2018-01-16T10:57:48.240Z,2.77
2018-01-16T11:00:15.834Z,3.47
2018-01-16T11:02:43.476Z,3.77
2018-01-16T11:05:11.074Z,3.82
2018-01-16T11:07:38.610Z,3.86
2018-01-16T11:10:06.151Z,4.38
2018-01-16T11:12:33.690Z,4.73
2018-01-16T11:15:01.294Z,5.36
2018-01-16T11:17:28.886Z,5.83
2018-01-16T11:19:56.425Z,6.45
2018-01-16T11:22:24.031Z,6.85
2018-01-16T11:24:51.569Z,7.18
2018-01-16T11:27:19.157Z,7.10
2018-01-16T11:29:46.690Z,7.60
2018-01-16T11:32:14.287Z,7.56
2018-01-16T11:34:41.949Z,8.32
2018-01-16T11:37:09.486Z,7.97
2018-01-16T11:39:37.122Z,6.80
2018-01-16T11:42:04.655Z,7.07
2018-01-16T11:44:32.185Z,6.81
2018-01-16T11:46:59.734Z,6.37
2018-01-16T11:49:27.326Z,6.49
2018-01-16T11:51:54.906Z,5.88
2018-01-16T11:54:22.434Z,5.49
2018-01-16T11:56:50.022Z,4.83
2018-01-16T11:59:17.566Z,4.41
2018-01-16T12:01:45.102Z,4.08
2018-01-16T12:04:12.774Z,4.06
2018-01-16T12:06:40.334Z,3.73
2018-01-16T12:09:07.866Z,3.81
2018-01-16T12:11:35.472Z,3.61
2018-01-16T12:14:03.106Z,3.49
2018-01-16T12:16:30.719Z,3.30
2018-01-16T12:18:58.327Z,2.84
2018-01-16T12:21:25.857Z,2.90
2018-01-16T12:23:53.399Z,2.72
2018-01-16T12:26:20.934Z,2.84
2018-01-16T12:28:48.514Z,2.70
2018-01-16T12:31:16.118Z,2.53
2018-01-16T12:33:43.706Z,2.30
2018-01-16T12:36:11.348Z,2.19
2018-01-16T12:38:38.938Z,2.03
2018-01-16T12:41:06.537Z,1.91
2018-01-16T12:43:34.074Z,1.78
2018-01-16T12:46:01.671Z,1.75
2018-01-16T12:48:29.222Z,1.77
2018-01-16T12:50:56.809Z,1.89
2018-01-16T12:53:24.414Z,1.81
2018-01-16T12:55:51.950Z,1.93
2018-01-16T12:58:19.547Z,2.00
2018-01-16T13:00:47.121Z,2.12
2018-01-16T13:03:14.659Z,2.08
2018-01-16T13:05:42.263Z,2.16
2018-01-16T13:08:09.850Z,2.10
2018-01-16T13:10:37.382Z,2.09
2018-01-16T13:13:04.922Z,2.13
2018-01-16T13:15:32.494Z,2.10
2018-01-16T13:18:00.076Z,1.77
2018-01-16T13:20:27.666Z,1.55
2018-01-16T13:22:55.258Z,1.45
2018-01-16T13:25:22.798Z,1.31
2018-01-16T13:27:50.337Z,1.35
2018-01-16T13:30:17.916Z,1.39
2018-01-16T13:32:45.450Z,1.23
2018-01-16T13:35:12.986Z,1.13
2018-01-16T13:37:40.586Z,1.18
2018-01-16T13:40:08.122Z,1.20
2018-01-16T13:42:35.806Z,1.23
2018-01-16T13:45:03.347Z,1.17
2018-01-16T13:47:30.952Z,1.37
2018-01-16T13:49:58.489Z,1.41
2018-01-16T13:52:26.026Z,1.35
2018-01-16T13:54:53.667Z,1.35
2018-01-16T13:57:21.259Z,0.95
2018-01-16T13:59:48.850Z,0.81
2018-01-16T14:02:16.390Z,0.73
2018-01-16T14:04:43.918Z,0.58
2018-01-16T14:07:11.554Z,0.50
2018-01-16T14:09:39.095Z,0.61
2018-01-16T14:12:06.695Z,0.70
2018-01-16T14:14:34.238Z,0.66
2018-01-16T14:17:01.770Z,0.60
2018-01-16T14:19:29.359Z,0.53
2018-01-16T14:21:56.894Z,0.34
2018-01-16T14:24:24.425Z,0.36
2018-01-16T14:26:52.031Z,0.33
2018-01-16T14:29:19.566Z,0.21
2018-01-16T14:31:47.202Z,0.18
2018-01-16T14:34:14.738Z,0.16
2018-01-16T14:36:42.330Z,0.18
2018-01-16T14:39:09.882Z,-0.01
2018-01-16T14:41:37.483Z,-0.08
2018-01-16T14:44:05.130Z,-0.08
2018-01-16T14:46:32.665Z,-0.06
2018-01-16T14:49:00.213Z,-0.06
2018-01-16T14:51:27.827Z,-0.11
2018-01-16T14:53:55.360Z,-0.20
2018-01-16T14:56:22.998Z,-0.39
2018-01-16T15:01:17.371Z,-0.54
2018-01-16T15:03:44.918Z,-0.54
2018-01-16T15:06:12.516Z,-0.66
2018-01-16T15:08:40.102Z,-0.74
2018-01-16T15:11:07.648Z,-0.76
2018-01-16T15:13:35.234Z,-0.77
2018-01-16T15:16:02.830Z,-0.87
2018-01-16T15:18:30.426Z,-0.87
2018-01-16T15:20:58.035Z,-0.87
2018-01-16T15:23:25.630Z,-0.83
2018-01-16T15:25:53.234Z,-0.81
2018-01-16T15:28:20.773Z,-0.78
2018-01-16T15:30:48.384Z,-0.75
2018-01-16T15:33:15.920Z,-0.76
2018-01-16T15:35:43.491Z,-0.81
2018-01-16T15:38:11.034Z,-0.75
2018-01-16T15:40:38.602Z,-0.78
2018-01-16T15:43:06.162Z,-0.80
2018-01-16T15:45:33.694Z,-0.80
2018-01-16T15:48:01.286Z,-0.80
2018-01-16T15:50:28.841Z,-0.86
2018-01-16T15:52:56.374Z,-0.94
2018-01-16T15:55:23.918Z,-0.89
2018-01-16T15:57:51.514Z,-0.92
2018-01-16T16:00:19.150Z,-0.95
2018-01-16T16:02:46.750Z,-1.07
2018-01-16T16:05:14.294Z,-1.08
2018-01-16T16:07:41.838Z,-1.12
2018-01-16T16:10:09.370Z,-1.15
2018-01-16T16:12:37.015Z,-1.22
2018-01-16T16:15:04.549Z,-1.28
2018-01-16T16:17:32.142Z,-1.29
2018-01-16T16:19:59.742Z,-1.27
2018-01-16T16:22:27.282Z,-1.28
2018-01-16T16:24:54.870Z,-1.35
2018-01-16T16:27:22.413Z,-1.33
2018-01-16T16:29:50.052Z,-1.36
2018-01-16T16:32:17.591Z,-1.36
2018-01-16T16:34:45.129Z,-1.39
2018-01-16T16:37:12.808Z,-1.50
2018-01-16T16:39:40.337Z,-1.52
2018-01-16T16:42:07.906Z,-1.54
2018-01-16T16:44:35.521Z,-1.55
2018-01-16T16:47:03.106Z,-1.57
2018-01-16T16:49:30.654Z,-1.60
2018-01-16T16:51:58.194Z,-1.61
2018-01-16T16:54:25.749Z,-1.65
2018-01-16T16:56:53.294Z,-1.70
2018-01-16T16:59:20.881Z,-1.74
2018-01-16T17:01:48.483Z,-1.77
2018-01-16T17:04:16.066Z,-1.87
2018-01-16T17:06:43.621Z,-1.92
2018-01-16T17:09:11.162Z,-1.95
2018-01-16T17:11:38.710Z,-1.97
2018-01-16T17:14:06.312Z,-1.96
2018-01-16T17:16:33.968Z,-1.97
2018-01-16T17:19:01.574Z,-1.87
2018-01-16T17:21:29.179Z,-1.78
2018-01-16T17:23:56.730Z,-1.70
2018-01-16T17:26:24.274Z,-1.59
2018-01-16T17:28:51.833Z,-1.50
2018-01-16T17:31:19.371Z,-1.40
2018-01-16T17:33:46.980Z,-1.35
2018-01-16T17:36:14.579Z,-1.31
2018-01-16T17:38:42.122Z,-1.22
2018-01-16T17:41:09.718Z,-1.18
2018-01-16T17:43:37.262Z,-1.18
2018-01-16T17:46:04.826Z,-1.11
2018-01-16T17:48:32.434Z,-1.09
2018-01-16T17:51:00.055Z,-1.14
2018-01-16T17:53:27.593Z,-1.09
2018-01-16T17:55:55.137Z,-1.12
2018-01-16T17:58:22.746Z,-1.07
2018-01-16T18:00:50.366Z,-1.04
2018-01-16T18:03:17.926Z,-1.08
2018-01-16T18:05:45.471Z,-1.03
2018-01-16T18:08:13.089Z,-0.96
2018-01-16T18:10:40.691Z,-1.01
2018-01-16T18:13:08.230Z,-1.06
2018-01-16T18:15:35.779Z,-1.25
2018-01-16T18:18:03.472Z,-1.27
2018-01-16T18:20:31.022Z,-1.40
2018-01-16T18:22:58.629Z,-1.37
2018-01-16T18:25:26.285Z,-1.35
2018-01-16T18:27:53.850Z,-1.35
2018-01-16T18:30:21.460Z,-1.34
2018-01-16T18:32:49.011Z,-1.29
2018-01-16T18:35:16.558Z,-1.30
2018-01-16T18:37:44.170Z,-1.24
2018-01-16T18:40:11.768Z,-1.13
2018-01-16T18:42:39.372Z,-1.19
2018-01-16T18:45:06.926Z,-1.22
2018-01-16T18:47:34.466Z,-1.24
2018-01-16T18:50:02.086Z,-1.30
2018-01-16T18:52:29.630Z,-1.35
2018-01-16T18:54:57.165Z,-1.44
2018-01-16T18:57:24.721Z,-1.58
2018-01-16T18:59:52.379Z,-1.78
2018-01-16T19:02:19.929Z,-1.93
2018-01-16T19:04:47.470Z,-1.99
2018-01-16T19:07:15.144Z,-2.03
2018-01-16T19:09:42.684Z,-2.12
2018-01-16T19:12:10.241Z,-2.16
2018-01-16T19:14:37.850Z,-2.15
2018-01-16T19:17:05.490Z,-2.26
2018-01-16T19:19:33.035Z,-2.16
2018-01-16T19:22:00.638Z,-2.10
2018-01-16T19:24:28.222Z,-2.02
2018-01-16T19:26:55.819Z,-1.95
2018-01-16T19:29:23.358Z,-1.91
2018-01-16T19:31:50.972Z,-1.93
2018-01-16T19:34:18.578Z,-1.83
2018-01-16T19:36:46.121Z,-1.83
2018-01-16T19:39:13.715Z,-1.76
2018-01-16T19:41:41.390Z,-1.76
2018-01-16T19:44:08.930Z,-1.67
2018-01-16T19:46:37.394Z,-1.66
2018-01-16T19:49:04.987Z,-1.65
2018-01-16T19:51:32.596Z,-1.67
2018-01-16T19:54:00.181Z,-1.71
2018-01-16T19:56:27.730Z,-1.84
2018-01-16T19:58:55.370Z,-1.90
2018-01-16T20:01:22.975Z,-1.93
2018-01-16T20:03:50.579Z,-1.96
2018-01-16T20:06:18.131Z,-1.93
2018-01-16T20:08:45.669Z,-1.92
2018-01-16T20:11:13.215Z,-1.90
2018-01-16T20:13:40.791Z,-1.95
2018-01-16T20:16:08.329Z,-1.96
2018-01-16T20:18:35.897Z,-1.99
2018-01-16T20:21:03.495Z,-1.97
2018-01-16T20:23:31.123Z,-1.97
2018-01-16T20:25:58.969Z,-1.94
2018-01-16T20:28:26.550Z,-1.93
2018-01-16T20:30:54.107Z,-1.92
2018-01-16T20:33:21.706Z,-1.99
2018-01-16T20:35:49.318Z,-1.97
2018-01-16T20:38:16.919Z,-2.03
2018-01-16T20:40:44.520Z,-2.14
2018-01-16T20:43:12.064Z,-2.24
2018-01-16T20:45:39.659Z,-2.32
2018-01-16T20:48:07.207Z,-2.35
2018-01-16T20:50:34.750Z,-2.32
2018-01-16T20:53:02.298Z,-2.24
2018-01-16T20:55:29.904Z,-2.25
2018-01-16T20:57:57.540Z,-2.22
2018-01-16T21:00:25.085Z,-2.14
2018-01-16T21:02:52.634Z,-2.03
2018-01-16T21:05:20.174Z,-2.01
2018-01-16T21:07:47.710Z,-2.05
2018-01-16T21:10:15.323Z,-2.07
2018-01-16T21:12:42.866Z,-2.04
2018-01-16T21:15:10.511Z,-1.99
2018-01-16T21:17:38.082Z,-2.00
2018-01-16T21:20:05.622Z,-1.98
2018-01-16T21:22:33.167Z,-1.97
2018-01-16T21:25:00.702Z,-2.14
2018-01-16T21:27:28.306Z,-2.22
2018-01-16T21:29:55.850Z,-2.10
2018-01-16T21:32:23.482Z,-2.06
2018-01-16T21:34:51.090Z,-1.97
2018-01-16T21:37:18.631Z,-1.93
2018-01-16T21:39:46.174Z,-1.82
2018-01-16T21:42:13.706Z,-1.73
2018-01-16T21:44:41.247Z,-1.53
2018-01-16T21:47:08.847Z,-1.46
2018-01-16T21:49:36.432Z,-1.40
2018-01-16T21:52:03.986Z,-1.34
2018-01-16T21:54:31.530Z,-1.28
2018-01-16T21:56:59.139Z,-1.43
2018-01-16T21:59:26.686Z,-1.46
2018-01-16T22:01:54.330Z,-1.49
2018-01-16T22:04:21.874Z,-1.57
2018-01-16T22:06:49.462Z,-1.60
2018-01-16T22:09:17.002Z,-1.55
2018-01-16T22:11:44.594Z,-1.61
2018-01-16T22:14:12.211Z,-1.78
2018-01-16T22:16:39.761Z,-1.77
2018-01-16T22:19:07.391Z,-1.73
2018-01-16T22:21:34.930Z,-1.60
2018-01-16T22:24:02.574Z,-1.65
2018-01-16T22:26:30.247Z,-1.61
2018-01-16T22:28:57.792Z,-1.51
2018-01-16T22:31:25.342Z,-1.52
2018-01-16T22:33:52.919Z,-1.53
2018-01-16T22:36:20.472Z,-1.48
2018-01-16T22:38:48.073Z,-1.53
2018-01-16T22:41:15.691Z,-1.47
2018-01-16T22:43:43.234Z,-1.54
2018-01-16T22:46:10.774Z,-1.69
2018-01-16T22:48:38.325Z,-1.67
2018-01-16T22:51:05.935Z,-1.88
2018-01-16T22:53:33.482Z,-1.84
2018-01-16T22:56:01.082Z,-1.77
2018-01-16T22:58:28.734Z,-1.74
2018-01-16T23:00:56.330Z,-1.73
2018-01-16T23:03:23.867Z,-1.64
2018-01-16T23:05:51.414Z,-1.61
2018-01-16T23:08:18.950Z,-1.60
2018-01-16T23:10:46.494Z,-1.56
2018-01-16T23:13:14.086Z,-1.67
2018-01-16T23:15:41.686Z,-1.66
2018-01-16T23:18:09.218Z,-1.69
2018-01-16T23:20:36.754Z,-1.70
2018-01-16T23:23:04.298Z,-1.71
2018-01-16T23:25:31.890Z,-1.71
2018-01-16T23:27:59.577Z,-1.66
2018-01-16T23:30:27.174Z,-1.56
2018-01-16T23:32:54.778Z,-1.56
2018-01-16T23:35:22.377Z,-1.55
2018-01-16T23:37:49.960Z,-1.55
2018-01-16T23:40:17.490Z,-1.54
2018-01-16T23:42:45.026Z,-1.65
2018-01-16T23:45:12.626Z,-1.60
2018-01-16T23:47:40.166Z,-1.72
2018-01-16T23:50:07.830Z,-1.62
2018-01-16T23:52:35.369Z,-1.65
2018-01-16T23:55:02.903Z,-1.67
2018-01-16T23:57:30.506Z,-1.65
2018-01-16T23:59:58.103Z,-1.56
